x

Corpus Christi, Tx - 60nm Sse Of Corpus Christi, Tx (42020) Wave Buoy

4:50am - Sat 4th Jul 2015 All times are CDT. -5 hours from GMT.

  • Sig Wave height 4.9ft
  • Swell Direction
  • Peak Period 6s
  • Average Period 5s
  • Wind
    20mph, 25mph gusts
  • Sea Temp 83°f
  • Air Temp 83°f
  • Sea Pressure 1013.6mb
  • Corpus Christi, Tx - 60nm Sse Of Corpus Christi, Tx
  • Corpus Christi, Tx - 60nm Sse Of Corpus Christi, Tx

More Historic Weather Station data

Upgrade to MSW Pro to gain access to the past 30 days of data for over 8000 Wavebouys and Weather Stations around the globe.

Join Pro

Comparision Forecast

View Surf forecast
   
Sat 07/04 4:50am 5ft 6s 5s 20 25 mph 1013.6mb 83f 83f
3:50am 4.5ft 5s 5s 20 25 mph 1013.7mb 83f 83f
2:50am 4.5ft 7s 5s 20 25 mph 1013.7mb 83f 83f
1:50am 4.5ft 7s 5s 20 22 mph 1014mb 83f 83f
12:50am 3.5ft 6s 4s 20 25 mph 1014.3mb 83f 83f
Fri 07/03 11:50pm 3.5ft 7s 4s 20 22 mph 1014.1mb 83f 83f
10:50pm 3.5ft 6s 4s 20 22 mph 1014.2mb 83f 83f
9:50pm 3.5ft 7s 4s 18 22 mph 1013.7mb 83f 83f
8:50pm 3ft 6s 4s 20 22 mph 1012.9mb 83f 83f
7:50pm 3ft 5s 4s 16 18 mph 1013.1mb 84f 83f
6:50pm 3ft 7s 4s 18 20 mph 1013mb 84f 84f
5:50pm 3ft 7s 4s 18 20 mph 1013.4mb 84f 84f
4:50pm 3.5ft 6s 4s 13 16 mph 1013.7mb 84f 84f
3:50pm 3.5ft 6s 4s 16 18 mph 1013.7mb 84f 84f
2:50pm 3.5ft 6s 4s 16 18 mph 1014.2mb 84f 83f
1:50pm 3.5ft 6s 4s 13 16 mph 1014.8mb 84f 83f
12:50pm 3.5ft 7s 4s 18 20 mph 1014.9mb 84f 84f
11:50am 3.5ft 7s 5s 16 18 mph 1015mb 84f 83f
10:50am 3.5ft 6s 4s 16 18 mph 1014.8mb 83f 83f
9:50am 3.5ft 6s 5s 16 18 mph 1014.6mb 83f 83f
8:50am 3.5ft 7s 5s 16
mph
1014.4mb 83f 83f
7:50am 4ft 7s 5s 13 16 mph 1014.2mb 83f 83f
6:50am 4ft 7s 5s 13 16 mph 1014.3mb 82f 82f
5:50am 4.5ft 7s 5s 11 13 mph 1014.2mb 82f 82f
4:50am 4.5ft 8s 5s 13 16 mph 1014.3mb 83f 82f
3:50am 4.5ft 6s 5s 16 20 mph 1013.9mb 83f 82f
2:50am 5ft 7s 5s 16 20 mph 1014.1mb 83f 82f
1:50am 4.5ft 8s 5s 20 25 mph 1014mb 83f 83f
12:50am 4.5ft 7s 5s 20 25 mph 1014mb 83f 83f
Thu 07/02 11:50pm 4.5ft 8s 5s 22 25 mph 1013.6mb 83f 83f
10:50pm 4.5ft 7s 5s 18 22 mph 1013.6mb 83f 83f
9:50pm 4ft 8s 5s 18 22 mph 1013.3mb 83f 83f
8:50pm 4ft 8s 5s 18 22 mph 1013.1mb 83f 83f
7:50pm 4.5ft 8s 5s 18 20 mph 1013.4mb 84f 83f
6:50pm 4ft 8s 5s 18 20 mph 1013.6mb 84f 83f
5:50pm 4ft 8s 5s 18 22 mph 1014.1mb 84f 84f
4:50pm 3.5ft 8s 5s 18 20 mph 1014.8mb 84f 84f
3:50pm 3.5ft 8s 5s 18 22 mph 1015.2mb 84f 84f
2:50pm 3.5ft 4s 4s 20 22 mph 1015.3mb 84f 84f
1:50pm 3.5ft 7s 4s 20 25 mph 1015.8mb 84f 84f
12:50pm 3.5ft 7s 4s 20 25 mph 1016.2mb 84f 84f
11:50am 3.5ft 7s 4s 18 22 mph 1016.2mb 84f 83f
10:50am 3.5ft 7s 4s 18 22 mph 1016mb 84f 83f
9:50am 3.5ft 7s 4s 18 20 mph 1015.9mb 84f 83f
8:50am 4.5ft 7s 5s 18 22 mph 1015.9mb 83f 83f
7:50am 4.5ft 7s 5s 16 18 mph 1015.7mb 83f 83f
6:50am 5ft 7s 5s 16 18 mph 1015.1mb 83f 82f
5:50am 5ft 7s 5s 18 20 mph 1014.4mb 83f 83f
4:50am 4.5ft 7s 5s 16 18 mph 1014mb 83f 82f
3:50am 4ft 8s 6s 16 18 mph 1014.4mb 83f 82f
2:50am 4.5ft 8s 6s 13 16 mph 1014.9mb 83f 82f
1:50am 4ft 7s 6s 11 13 mph 1015.8mb 83f 82f
12:50am 4.5ft 7s 6s 9 13 mph 1016.7mb 83f 82f
Wed 07/01 11:50pm 4.5ft 8s 6s 7 9 mph 1017.4mb 83f 81f
10:50pm 4.5ft 8s 6s 4
mph
1017.1mb 83f 81f
9:50pm 4ft 7s 6s 4 7 mph 1016.6mb 83f 81f
8:50pm 4ft 7s 6s 4 7 mph 1016.3mb 83f 81f
7:50pm 4ft 8s 6s 4
mph
1016.3mb 83f 81f
6:50pm 4.5ft 7s 6s 4
mph
1016mb 83f 81f
5:50pm 5ft 8s 6s 7 9 mph 1016mb 83f 81f
4:50pm 5ft 7s 5s 11 13 mph 1016.1mb 83f 81f
3:50pm 6ft 7s 5s 11 16 mph 1016.2mb 83f 80f
2:50pm 6ft 7s 5s 16 18 mph 1016.4mb 83f 80f
1:50pm 7ft 6s 5s 16 18 mph 1017.2mb 83f 80f
12:50pm 6.5ft 6s 5s 18 25 mph 1017.1mb 83f 79f
11:50am 6.5ft 6s 5s 27 31 mph 1017.7mb 84f 78f
10:50am 5.5ft 6s 4s 29 36 mph 1016.8mb 84f 77f
9:50am 5.5ft 6s 5s 22 27 mph 1015.9mb 84f 84f
8:50am 5.5ft 7s 5s 22 25 mph 1015.2mb 83f 84f
7:50am 5.5ft 6s 5s 20 22 mph 1015.1mb 83f 84f
6:50am 5ft 5s 5s 18 20 mph 1014.6mb 83f 83f
5:50am 5ft 6s 5s 18 22 mph 1014.3mb 83f 83f
4:50am 5ft 5s 5s 18 22 mph 1014.3mb 84f 83f
3:50am 5ft 5s 4s 18 22 mph 1014.6mb 84f 83f
2:50am 4.5ft 6s 4s 20 22 mph 1015.2mb 83f 83f
1:50am 4.5ft 6s 4s 22 27 mph 1015.1mb 84f 83f
12:50am 3.5ft 6s 5s 20 25 mph 1016mb 84f 83f
Tue 06/30 11:50pm 3.5ft 7s 5s 16 20 mph 1016.6mb 84f 83f
10:50pm 4ft 7s 5s 13 16 mph 1016.6mb 84f 84f
9:50pm 4ft 7s 5s 9 11 mph 1016.6mb 84f 84f
8:50pm 4ft 7s 5s 9 13 mph 1016.1mb 84f 84f
7:50pm 4ft 7s 5s 9 11 mph 1015mb 84f 83f
6:50pm 4.5ft 7s 5s 11 13 mph 1013.5mb 84f 83f
5:50pm 4.5ft 7s 5s 13 16 mph 1013mb 84f 83f
4:50pm 5ft 7s 5s 9 11 mph 1013.6mb 84f 82f
3:50pm 5ft 7s 5s 18 20 mph 1015.5mb 84f 82f
2:50pm 6ft 7s 5s 18 22 mph 1016.5mb 84f 81f
1:50pm 6ft 6s 5s 18 20 mph 1017mb 84f 80f
12:50pm 7ft 6s 5s 22 27 mph 1017.8mb 84f 79f
11:50am 6ft 5s 4s 29 34 mph 1017.5mb 84f 78f